createdAt,value
2022-09-17T00:05:26.112Z,6.20
2022-09-17T00:15:31.857Z,6.18
2022-09-17T00:25:38.773Z,6.13
2022-09-17T00:35:44.647Z,6.10
2022-09-17T00:45:53.418Z,6.13
2022-09-17T00:56:03.322Z,6.19
2022-09-17T01:06:19.649Z,6.24
2022-09-17T01:16:35.441Z,6.16
2022-09-17T01:26:59.743Z,6.14
2022-09-17T01:37:11.719Z,6.13
2022-09-17T01:47:21.755Z,6.15
2022-09-17T01:57:33.768Z,6.11
2022-09-17T02:07:46.338Z,6.05
2022-09-17T02:17:55.656Z,6.04
2022-09-17T02:28:06.141Z,6.05
2022-09-17T02:38:11.970Z,6.04
2022-09-17T02:48:57.336Z,6.00
2022-09-17T02:59:13.627Z,5.91
2022-09-17T03:09:19.297Z,5.88
2022-09-17T03:19:24.929Z,5.90
2022-09-17T03:29:30.671Z,5.88
2022-09-17T03:39:36.287Z,5.88
2022-09-17T03:49:41.910Z,5.87
2022-09-17T03:59:47.592Z,5.82
2022-09-17T04:09:53.284Z,5.84
2022-09-17T04:19:59.326Z,6.12
2022-09-17T04:30:05.167Z,6.47
2022-09-17T04:40:12.391Z,6.88
2022-09-17T04:50:18.522Z,7.31
2022-09-17T05:00:25.815Z,7.63
2022-09-17T05:10:31.449Z,7.82
2022-09-17T05:20:37.125Z,7.98
2022-09-17T05:30:42.880Z,8.13
2022-09-17T05:40:49.222Z,8.35
2022-09-17T05:50:55.445Z,8.65
2022-09-17T06:01:03.040Z,8.91
2022-09-17T06:11:09.737Z,9.13
2022-09-17T06:21:15.636Z,9.44
2022-09-17T06:31:21.366Z,9.57
2022-09-17T06:41:27.330Z,9.68
2022-09-17T06:51:32.929Z,9.68
2022-09-17T07:01:38.610Z,9.70
2022-09-17T07:11:44.385Z,9.81
2022-09-17T07:21:51.804Z,9.82
2022-09-17T07:31:59.528Z,9.93
2022-09-17T07:42:05.341Z,9.86
2022-09-17T07:52:11.107Z,10.03
2022-09-17T08:02:20.663Z,10.34
2022-09-17T08:12:29.482Z,10.37
2022-09-17T08:22:35.120Z,10.43
2022-09-17T08:32:40.744Z,10.94
2022-09-17T08:42:54.209Z,11.78
2022-09-17T08:53:11.547Z,12.60
2022-09-17T09:03:30.309Z,12.63
2022-09-17T09:13:42.230Z,12.69
2022-09-17T09:23:56.813Z,13.38
2022-09-17T09:34:05.347Z,14.29
2022-09-17T09:44:16.045Z,13.58
2022-09-17T09:54:49.711Z,13.04
2022-09-17T10:04:55.492Z,12.57
2022-09-17T10:15:25.924Z,13.02
2022-09-17T10:25:34.854Z,14.10
2022-09-17T10:35:40.703Z,14.68
2022-09-17T10:45:55.619Z,15.65
2022-09-17T10:56:15.346Z,16.51
2022-09-17T11:06:41.505Z,16.57
2022-09-17T11:16:58.622Z,15.93
2022-09-17T11:27:14.586Z,15.08
2022-09-17T11:37:26.666Z,14.53
2022-09-17T11:47:36.375Z,13.93
2022-09-17T11:57:45.599Z,13.67
2022-09-17T12:07:57.764Z,13.48
2022-09-17T12:18:33.610Z,13.07
2022-09-17T12:28:49.153Z,13.12
2022-09-17T12:39:21.459Z,13.15
2022-09-17T12:49:48.158Z,13.77
2022-09-17T13:00:05.258Z,14.20
2022-09-17T13:10:47.958Z,14.46
2022-09-17T13:21:05.649Z,14.76
2022-09-17T13:31:11.890Z,14.94
2022-09-17T13:41:28.181Z,15.36
2022-09-17T13:51:52.226Z,15.22
2022-09-17T14:02:18.412Z,15.13
2022-09-17T14:12:56.505Z,15.03
2022-09-17T14:23:03.403Z,15.05
2022-09-17T14:33:17.993Z,14.83
2022-09-17T14:43:32.854Z,14.66
2022-09-17T14:53:38.505Z,14.25
2022-09-17T15:03:44.256Z,13.99
2022-09-17T15:13:53.096Z,13.96
2022-09-17T15:24:03.758Z,13.82
2022-09-17T15:34:12.331Z,13.60
2022-09-17T15:44:32.074Z,13.48
2022-09-17T15:54:39.959Z,13.26
2022-09-17T16:04:45.597Z,13.03
2022-09-17T16:14:53.433Z,12.91
2022-09-17T16:24:59.108Z,12.71
2022-09-17T16:35:05.206Z,12.57
2022-09-17T16:45:11.898Z,12.42
2022-09-17T16:55:18.726Z,12.22
2022-09-17T17:05:25.600Z,12.02
2022-09-17T17:15:31.430Z,11.74
2022-09-17T17:25:37.337Z,11.45
2022-09-17T17:35:43.343Z,11.23
2022-09-17T17:45:49.005Z,11.15
2022-09-17T17:56:02.226Z,11.10
2022-09-17T18:06:09.368Z,11.14
2022-09-17T18:16:17.358Z,11.12
2022-09-17T18:26:24.717Z,11.09
2022-09-17T18:36:33.080Z,11.04
2022-09-17T18:46:39.233Z,10.98
2022-09-17T18:56:45.268Z,10.91
2022-09-17T19:06:51.144Z,10.77
2022-09-17T19:16:56.935Z,10.54
2022-09-17T19:27:04.238Z,10.22
2022-09-17T19:37:10.091Z,9.89
2022-09-17T19:47:15.724Z,9.78
2022-09-17T19:57:21.981Z,9.65
2022-09-17T20:07:28.805Z,9.46
2022-09-17T20:17:34.621Z,9.47
2022-09-17T20:27:40.425Z,9.64
2022-09-17T20:48:12.000Z,9.58
2022-09-17T20:58:20.259Z,9.50
2022-09-17T21:08:26.035Z,9.49
2022-09-17T21:18:35.105Z,9.61
2022-09-17T21:28:44.767Z,9.67
2022-09-17T21:38:54.878Z,9.62
2022-09-17T21:49:03.169Z,9.63
2022-09-17T21:59:11.136Z,9.66
2022-09-17T22:09:19.141Z,9.66
2022-09-17T22:19:24.198Z,9.72
2022-09-17T22:29:32.157Z,9.74
2022-09-17T22:39:38.270Z,9.74
2022-09-17T22:49:43.954Z,9.72
2022-09-17T22:59:49.754Z,9.68
2022-09-17T23:09:55.422Z,9.60
2022-09-17T23:20:01.126Z,9.53
2022-09-17T23:30:07.742Z,9.41
2022-09-17T23:40:13.639Z,9.26
2022-09-17T23:50:19.677Z,9.05
